Time;durP1;ratioP1;P1;durP2;ratioP2;P2;SDS_P1;SDS_P2;PMS_P1;PMS_P2;Temp;Humidity;BMP_temperature;BMP_pressure;BME280_temperature;BME280_humidity;BME280_pressure;Samples;Min_cycle;Max_cycle;Signal;HPM_P1;HPM_P2
2023/12/25 00:01:26;;;;;;;16.13;14.50;;;;;;;7.90;80.82;92627.66;5048962;28;20186;-75
2023/12/25 00:03:52;;;;;;;13.37;12.37;;;;;;;7.76;80.75;92599.84;5048864;28;20189;-76
2023/12/25 00:06:18;;;;;;;15.87;13.33;;;;;;;7.74;80.31;92623.50;5049651;28;20221;-75
2023/12/25 00:08:43;;;;;;;15.93;12.53;;;;;;;7.76;80.64;92620.66;5065439;28;20229;-77
2023/12/25 00:11:10;;;;;;;16.63;14.20;;;;;;;7.66;81.00;92613.63;5066438;28;20201;-75
2023/12/25 00:13:35;;;;;;;19.07;14.13;;;;;;;7.44;80.94;92599.34;5060699;28;20232;-75
2023/12/25 00:16:01;;;;;;;25.03;18.43;;;;;;;7.61;80.72;92603.22;5066700;28;20178;-75
2023/12/25 00:18:26;;;;;;;18.27;14.90;;;;;;;7.39;81.37;92620.88;5069201;28;20239;-77
2023/12/25 00:20:51;;;;;;;21.10;14.77;;;;;;;7.36;82.17;92599.84;5069213;28;20221;-76
2023/12/25 00:23:17;;;;;;;12.23;11.13;;;;;;;7.26;82.71;92605.81;5043660;28;20230;-78
2023/12/25 00:25:42;;;;;;;13.70;12.50;;;;;;;6.97;82.88;92590.97;5047534;28;20190;-79
2023/12/25 00:28:07;;;;;;;13.63;12.23;;;;;;;7.29;82.48;92615.69;5047986;28;20760;-79
2023/12/25 00:30:33;;;;;;;11.77;10.87;;;;;;;7.40;82.52;92613.88;5047399;28;20194;-76
2023/12/25 00:32:58;;;;;;;13.20;12.10;;;;;;;7.43;82.28;92611.56;5046841;28;20228;-76
2023/12/25 00:35:24;;;;;;;15.63;14.00;;;;;;;7.26;83.16;92595.44;5045766;28;20198;-76
2023/12/25 00:37:50;;;;;;;14.37;12.93;;;;;;;7.35;82.80;92598.28;5064250;28;20217;-76
2023/12/25 00:40:16;;;;;;;15.13;13.13;;;;;;;7.53;81.99;92603.75;5055597;28;20559;-77
2023/12/25 00:42:41;;;;;;;13.73;11.20;;;;;;;7.61;81.31;92603.22;5056081;28;20312;-78
2023/12/25 00:45:07;;;;;;;15.37;13.23;;;;;;;7.61;81.51;92598.03;5043441;28;20193;-76
2023/12/25 00:47:32;;;;;;;13.27;11.97;;;;;;;7.51;81.48;92592.84;5044819;28;20225;-75
2023/12/25 00:49:57;;;;;;;13.77;12.47;;;;;;;7.73;80.79;92614.16;5039378;28;20187;-76
2023/12/25 00:52:23;;;;;;;16.37;14.70;;;;;;;7.71;81.29;92610.25;5042257;28;20237;-76
2023/12/25 00:54:48;;;;;;;18.60;14.13;;;;;;;7.63;81.76;92600.38;5048079;28;20200;-77
2023/12/25 00:57:14;;;;;;;16.63;12.57;;;;;;;7.56;81.78;92612.84;5044883;28;20237;-77
2023/12/25 00:59:39;;;;;;;14.90;13.40;;;;;;;7.69;81.31;92615.69;5046946;28;20190;-77
2023/12/25 01:02:05;;;;;;;16.00;14.47;;;;;;;7.50;81.89;92616.50;5047282;28;20233;-77
2023/12/25 01:04:30;;;;;;;18.10;14.07;;;;;;;7.49;82.41;92613.09;5047040;28;20217;-77
2023/12/25 01:06:55;;;;;;;13.53;12.17;;;;;;;7.44;82.88;92612.34;5038982;28;20235;-76
2023/12/25 01:09:21;;;;;;;15.30;13.70;;;;;;;7.58;82.21;92603.75;5046982;28;20238;-77
2023/12/25 01:11:46;;;;;;;14.63;13.23;;;;;;;7.64;81.67;92601.94;5052042;28;20236;-77
2023/12/25 01:14:12;;;;;;;15.43;13.97;;;;;;;7.53;82.19;92605.59;5066600;28;20220;-76
2023/12/25 01:16:37;;;;;;;15.00;13.47;;;;;;;7.56;82.18;92605.84;5072466;28;20189;-77
2023/12/25 01:19:03;;;;;;;16.83;12.70;;;;;;;7.54;82.05;92594.94;5069378;28;20178;-77
2023/12/25 01:21:29;;;;;;;12.60;11.40;;;;;;;7.70;81.20;92600.91;5067390;28;20249;-76
2023/12/25 01:23:54;;;;;;;13.43;11.43;;;;;;;7.34;82.30;92594.13;5067823;28;20186;-77
2023/12/25 01:26:19;;;;;;;18.07;16.27;;;;;;;7.29;82.49;92602.72;5063245;28;21182;-76
2023/12/25 01:28:45;;;;;;;15.07;12.53;;;;;;;7.15;83.40;92580.09;5074761;28;21127;-76
2023/12/25 01:31:10;;;;;;;13.20;12.17;;;;;;;7.22;83.54;92599.56;5064941;28;20209;-75
2023/12/25 01:33:36;;;;;;;16.50;12.63;;;;;;;7.21;82.94;92607.63;5069204;28;20292;-75
2023/12/25 01:36:01;;;;;;;15.50;13.67;;;;;;;7.27;83.40;92586.59;5065502;28;20180;-76
2023/12/25 01:38:26;;;;;;;25.70;16.10;;;;;;;7.24;83.36;92602.69;5061820;28;20293;-76
2023/12/25 01:40:52;;;;;;;15.23;13.73;;;;;;;7.19;83.69;92594.13;5060580;28;20190;-75
2023/12/25 01:43:17;;;;;;;24.27;15.73;;;;;;;7.14;83.48;92592.31;5073958;28;20224;-75
2023/12/25 01:45:42;;;;;;;25.70;18.13;;;;;;;7.39;82.69;92576.72;5068035;28;20194;-75
2023/12/25 01:48:09;;;;;;;17.63;13.83;;;;;;;7.42;82.51;92589.22;5072153;28;20282;-75
2023/12/25 01:50:34;;;;;;;14.33;11.93;;;;;;;7.49;82.26;92578.56;5067037;28;20174;-76
2023/12/25 01:53:01;;;;;;;15.23;12.47;;;;;;;7.55;81.85;92580.91;5070903;28;20270;-76
2023/12/25 01:55:27;;;;;;;16.20;12.90;;;;;;;7.52;81.89;92589.22;5071862;28;20212;-75
2023/12/25 01:57:52;;;;;;;22.80;17.93;;;;;;;7.53;82.07;92584.81;5070653;28;20221;-75
2023/12/25 02:00:18;;;;;;;27.77;19.43;;;;;;;7.74;80.83;92592.31;5060990;28;20312;-75
2023/12/25 02:02:43;;;;;;;35.03;22.00;;;;;;;7.82;80.41;92589.19;5059050;28;20661;-76
2023/12/25 02:05:09;;;;;;;17.47;14.23;;;;;;;7.81;80.59;92587.63;5070898;28;20295;-76
2023/12/25 02:07:38;;;;;;;14.03;12.60;;;;;;;7.78;80.69;92597.78;5071031;28;20783;-75
2023/12/25 02:10:03;;;;;;;32.97;23.00;;;;;;;7.72;80.20;92576.22;5074350;28;20181;-78
2023/12/25 02:12:28;;;;;;;16.03;14.33;;;;;;;7.92;79.03;92598.81;5071216;28;20237;-75
2023/12/25 02:14:54;;;;;;;25.97;19.83;;;;;;;7.79;79.91;92589.72;5055259;28;20714;-74
2023/12/25 02:17:19;;;;;;;15.90;14.03;;;;;;;7.77;79.87;92596.22;5069331;28;20225;-74
2023/12/25 02:19:45;;;;;;;13.47;11.93;;;;;;;8.11;77.69;92597.97;5068302;28;20222;-74
2023/12/25 02:22:12;;;;;;;20.70;16.63;;;;;;;8.00;78.49;92596.44;5068209;28;20232;-74
2023/12/25 02:24:44;;;;;;;19.27;15.93;;;;;;;7.85;79.33;92583.47;5070016;28;20181;-74
2023/12/25 02:27:09;;;;;;;13.17;11.80;;;;;;;7.44;80.93;92596.75;5064439;28;20245;-74
2023/12/25 02:29:35;;;;;;;14.90;13.57;;;;;;;7.86;78.96;92563.47;5061429;28;20627;-74
2023/12/25 02:32:00;;;;;;;23.33;19.80;;;;;;;7.50;80.15;92586.09;5069528;28;20221;-74
2023/12/25 02:34:26;;;;;;;229.47;86.43;;;;;;;7.80;79.15;92565.28;5054190;28;20193;-74
2023/12/25 02:36:51;;;;;;;48.20;23.50;;;;;;;7.53;80.07;92574.41;5061912;28;20293;-74
2023/12/25 02:39:17;;;;;;;12.40;11.30;;;;;;;7.88;78.99;92584.75;5051089;28;20205;-74
2023/12/25 02:41:43;;;;;;;11.77;10.57;;;;;;;7.97;78.57;92581.38;5049424;28;20229;-74
2023/12/25 02:44:08;;;;;;;14.57;13.07;;;;;;;7.71;80.14;92595.44;5039641;28;20214;-74
2023/12/25 02:46:33;;;;;;;12.13;11.13;;;;;;;7.59;80.90;92594.16;5046910;28;20204;-74
2023/12/25 02:48:59;;;;;;;14.20;12.80;;;;;;;7.56;80.87;92574.69;5048774;28;20200;-74
2023/12/25 02:51:24;;;;;;;18.97;14.27;;;;;;;7.38;81.73;92584.78;5051207;28;20294;-74
2023/12/25 02:53:49;;;;;;;13.07;11.87;;;;;;;7.43;81.36;92571.81;5067718;28;20204;-74
2023/12/25 02:56:15;;;;;;;14.63;11.33;;;;;;;7.19;81.94;92576.72;5062459;28;20208;-74
2023/12/25 02:58:40;;;;;;;11.50;10.60;;;;;;;7.68;80.66;92598.56;5071358;28;20232;-74
2023/12/25 03:01:05;;;;;;;13.87;12.13;;;;;;;7.48;81.30;92603.78;5070633;28;20181;-74
2023/12/25 03:03:31;;;;;;;12.70;11.60;;;;;;;7.43;81.29;92595.19;5051619;28;20260;-74
2023/12/25 03:05:56;;;;;;;12.87;11.77;;;;;;;7.46;81.03;92598.03;5050411;28;20190;-74
2023/12/25 03:08:21;;;;;;;12.20;11.23;;;;;;;7.80;79.72;92596.47;5050330;28;20230;-74
2023/12/25 03:10:47;;;;;;;13.37;11.90;;;;;;;7.63;80.33;92616.75;5048756;28;20190;-74
2023/12/25 03:13:12;;;;;;;13.57;12.13;;;;;;;7.66;80.07;92611.03;5032104;28;20218;-75
2023/12/25 03:15:37;;;;;;;13.90;12.93;;;;;;;7.45;80.74;92606.88;5032721;28;20194;-75
2023/12/25 03:18:03;;;;;;;13.27;11.97;;;;;;;7.57;80.21;92594.41;5048279;28;20243;-75
2023/12/25 03:20:28;;;;;;;12.80;11.63;;;;;;;7.66;78.94;92582.44;5039812;28;20229;-74
2023/12/25 03:22:54;;;;;;;14.53;12.50;;;;;;;7.47;80.18;92617.78;5045258;28;20230;-74
2023/12/25 03:25:19;;;;;;;14.90;13.53;;;;;;;7.64;79.79;92602.72;5059354;28;20215;-74
2023/12/25 03:27:44;;;;;;;14.30;12.80;;;;;;;7.60;79.36;92604.28;5059401;28;20325;-75
2023/12/25 03:30:10;;;;;;;13.90;12.80;;;;;;;7.73;78.61;92616.75;5052598;28;20177;-75
2023/12/25 03:32:35;;;;;;;14.97;12.53;;;;;;;7.71;78.96;92621.44;5055367;28;20249;-74
2023/12/25 03:35:01;;;;;;;13.60;12.30;;;;;;;7.54;79.62;92615.72;5035691;28;20258;-74
2023/12/25 03:37:26;;;;;;;12.67;11.50;;;;;;;7.74;78.69;92631.31;5039026;28;20230;-74
2023/12/25 03:39:52;;;;;;;12.10;11.13;;;;;;;7.74;78.43;92627.91;5053240;28;20186;-74
2023/12/25 03:42:17;;;;;;;13.40;12.30;;;;;;;7.38;80.20;92632.31;5050484;28;20229;-75
2023/12/25 03:44:43;;;;;;;14.33;13.13;;;;;;;7.54;79.92;92620.91;5044851;28;20195;-75
2023/12/25 03:47:08;;;;;;;14.57;13.13;;;;;;;7.36;80.58;92639.56;5046080;28;20217;-75
2023/12/25 03:49:33;;;;;;;13.03;11.87;;;;;;;7.40;79.90;92637.25;5082382;28;20234;-75
2023/12/25 03:51:59;;;;;;;13.43;11.97;;;;;;;7.67;79.11;92645.59;5074155;28;20243;-75
2023/12/25 03:54:24;;;;;;;13.20;12.03;;;;;;;7.39;79.49;92638.28;5066058;28;20212;-75
2023/12/25 03:56:50;;;;;;;13.93;11.73;;;;;;;7.68;78.36;92645.34;5069740;28;20276;-76
2023/12/25 03:59:15;;;;;;;12.67;11.67;;;;;;;7.63;78.33;92647.91;5063691;28;20197;-76
2023/12/25 04:01:40;;;;;;;12.70;11.57;;;;;;;7.44;79.15;92644.25;5069035;28;20243;-77
2023/12/25 04:04:06;;;;;;;12.80;11.70;;;;;;;7.31;80.43;92662.97;5059455;28;20212;-76
2023/12/25 04:06:31;;;;;;;12.07;11.17;;;;;;;7.23;80.92;92652.28;5074441;28;20213;-76
2023/12/25 04:08:57;;;;;;;13.23;11.93;;;;;;;7.19;80.99;92666.81;5062795;28;20185;-76
2023/12/25 04:11:23;;;;;;;13.17;11.97;;;;;;;7.13;81.00;92673.81;5057240;28;20195;-75
2023/12/25 04:13:53;;;;;;;15.70;13.77;;;;;;;7.15;80.58;92645.78;5045262;28;20206;-77
2023/12/25 04:16:20;;;;;;;13.43;12.17;;;;;;;7.32;79.93;92667.09;5050591;28;20194;-76
2023/12/25 04:18:45;;;;;;;13.90;12.83;;;;;;;7.32;80.06;92663.72;5050182;28;20213;-76
2023/12/25 04:21:30;;;;;;;13.40;12.30;;;;;;;6.67;83.22;92685.06;5046212;28;20214;-75
2023/12/25 04:23:57;;;;;;;12.53;11.43;;;;;;;6.90;82.71;92658.69;5035584;28;20240;-76
2023/12/25 04:26:23;;;;;;;14.43;13.13;;;;;;;6.72;83.14;92669.53;5043074;28;20720;-76
2023/12/25 04:28:49;;;;;;;15.93;12.10;;;;;;;6.78;82.58;92655.53;5046883;28;20178;-76
2023/12/25 04:31:15;;;;;;;12.87;11.93;;;;;;;6.92;82.15;92671.41;5049277;28;20174;-77
2023/12/25 04:33:41;;;;;;;13.20;11.90;;;;;;;6.77;82.29;92648.00;5057607;28;20276;-76
2023/12/25 04:36:06;;;;;;;12.33;10.73;;;;;;;6.62;82.47;92625.38;5061617;28;20209;-75
2023/12/25 04:38:32;;;;;;;19.43;17.60;;;;;;;6.44;84.61;92659.53;5061851;28;20233;-77
2023/12/25 04:40:58;;;;;;;12.53;11.37;;;;;;;6.62;83.77;92660.91;5068498;28;20173;-76
2023/12/25 04:43:23;;;;;;;14.30;12.13;;;;;;;6.63;82.16;92624.31;5048925;28;20330;-76
2023/12/25 04:45:49;;;;;;;13.63;12.47;;;;;;;6.91;81.32;92626.50;5049066;28;20200;-76
2023/12/25 04:48:14;;;;;;;11.67;10.67;;;;;;;6.58;81.02;92604.34;5040804;28;20289;-77
2023/12/25 04:50:40;;;;;;;12.77;11.77;;;;;;;7.05;80.29;92626.81;5042600;28;20278;-76
2023/12/25 04:53:05;;;;;;;13.50;12.30;;;;;;;6.91;79.81;92605.75;5056433;28;20241;-76
2023/12/25 04:55:32;;;;;;;12.20;10.93;;;;;;;6.75;80.26;92605.97;5064425;28;20193;-77
2023/12/25 04:57:58;;;;;;;11.57;10.67;;;;;;;6.45;83.93;92667.06;5069970;28;20225;-76
2023/12/25 05:00:23;;;;;;;11.20;10.20;;;;;;;7.05;78.79;92614.59;5067054;28;20249;-76
2023/12/25 05:02:48;;;;;;;12.13;10.77;;;;;;;7.10;78.70;92648.34;5059644;28;20323;-75
2023/12/25 05:05:15;;;;;;;13.17;11.93;;;;;;;7.16;79.17;92688.88;5069964;28;20204;-75
2023/12/25 05:07:40;;;;;;;11.80;11.00;;;;;;;7.31;78.42;92673.34;5060492;28;20946;-76
2023/12/25 05:10:06;;;;;;;12.27;11.07;;;;;;;7.75;76.05;92682.22;5068640;28;20177;-75
2023/12/25 05:12:31;;;;;;;11.80;10.83;;;;;;;7.69;76.89;92672.88;5066183;28;21873;-75
2023/12/25 05:14:56;;;;;;;15.90;12.53;;;;;;;7.47;77.44;92693.09;5068920;28;20192;-76
2023/12/25 05:17:22;;;;;;;12.60;11.53;;;;;;;7.58;77.29;92663.50;5055300;28;20293;-75
2023/12/25 05:19:47;;;;;;;18.00;12.57;;;;;;;7.30;77.77;92625.03;5069556;28;20229;-76
2023/12/25 05:22:13;;;;;;;20.83;18.33;;;;;;;7.53;77.58;92652.34;5061982;28;20229;-77
2023/12/25 05:24:39;;;;;;;18.73;14.33;;;;;;;7.30;77.51;92638.00;5051496;28;20208;-75
2023/12/25 05:27:04;;;;;;;18.17;15.70;;;;;;;7.28;78.19;92634.13;5056900;28;20213;-76
2023/12/25 05:29:29;;;;;;;16.20;14.60;;;;;;;6.66;81.28;92664.56;5068523;28;20189;-77
2023/12/25 05:31:55;;;;;;;16.03;13.87;;;;;;;6.82;81.16;92687.72;5066138;28;20225;-76
2023/12/25 05:34:20;;;;;;;14.60;13.23;;;;;;;7.01;80.35;92701.81;5062935;28;20189;-75
2023/12/25 05:36:45;;;;;;;13.73;12.37;;;;;;;6.79;81.54;92703.00;5068740;28;20287;-76
2023/12/25 05:39:11;;;;;;;11.97;11.13;;;;;;;6.87;81.24;92699.91;5059423;28;20197;-77
2023/12/25 05:41:36;;;;;;;15.07;12.33;;;;;;;6.57;82.52;92708.34;5065253;28;20197;-76
2023/12/25 05:44:02;;;;;;;15.83;14.27;;;;;;;6.47;81.57;92646.06;5049481;28;20183;-73
2023/12/25 05:46:27;;;;;;;12.13;10.93;;;;;;;6.40;82.60;92677.41;5048527;28;20218;-74
2023/12/25 05:48:53;;;;;;;13.83;12.67;;;;;;;6.60;82.07;92663.75;5061807;28;20193;-74
2023/12/25 05:51:18;;;;;;;14.43;13.17;;;;;;;6.80;81.85;92665.66;5054461;28;20200;-74
2023/12/25 05:53:43;;;;;;;13.57;12.00;;;;;;;6.36;82.68;92672.97;5041169;28;20218;-75
2023/12/25 05:56:09;;;;;;;13.80;12.63;;;;;;;6.51;83.06;92681.59;5044355;28;20210;-75
2023/12/25 05:58:34;;;;;;;14.40;13.20;;;;;;;6.68;81.72;92688.44;5037446;28;20233;-75
2023/12/25 06:01:00;;;;;;;17.07;13.73;;;;;;;6.42;82.50;92690.91;5041707;28;20241;-75
2023/12/25 06:03:26;;;;;;;13.80;11.93;;;;;;;6.33;83.23;92673.47;5045879;28;20226;-74
2023/12/25 06:05:52;;;;;;;13.80;12.60;;;;;;;6.25;83.16;92668.75;5050971;28;20182;-74
2023/12/25 06:08:17;;;;;;;12.37;11.13;;;;;;;6.37;82.69;92669.34;5050932;28;20275;-75
2023/12/25 06:10:43;;;;;;;12.23;11.17;;;;;;;6.65;81.50;92676.75;5051075;28;20223;-74
2023/12/25 06:13:08;;;;;;;14.13;12.97;;;;;;;6.46;82.02;92673.00;5052898;28;20242;-74
2023/12/25 06:15:33;;;;;;;13.53;12.50;;;;;;;6.39;82.52;92677.66;5056864;28;20178;-74
2023/12/25 06:17:59;;;;;;;13.37;12.00;;;;;;;6.73;81.05;92694.41;5039622;28;20242;-74
2023/12/25 06:20:25;;;;;;;13.80;12.60;;;;;;;6.64;81.83;92706.31;5041412;28;20214;-74
2023/12/25 06:22:50;;;;;;;15.07;12.43;;;;;;;6.31;84.19;92737.75;5049631;28;20289;-74
2023/12/25 06:25:16;;;;;;;13.77;12.63;;;;;;;6.01;84.09;92724.56;5048921;28;20181;-74
2023/12/25 06:27:41;;;;;;;15.23;13.63;;;;;;;6.32;82.78;92770.41;5044471;28;20236;-74
2023/12/25 06:30:07;;;;;;;15.43;14.03;;;;;;;6.40;82.62;92755.19;5049376;28;20298;-74
2023/12/25 06:32:32;;;;;;;12.70;11.63;;;;;;;6.76;81.72;92763.97;5049950;28;20252;-74
2023/12/25 06:34:58;;;;;;;13.80;12.67;;;;;;;6.81;81.75;92758.81;5069935;28;20200;-74
2023/12/25 06:37:23;;;;;;;22.60;15.23;;;;;;;6.87;80.95;92752.59;5066331;28;20309;-74
2023/12/25 06:39:49;;;;;;;16.20;14.00;;;;;;;6.92;80.82;92747.44;5069913;28;20186;-74
2023/12/25 06:42:14;;;;;;;36.30;22.87;;;;;;;7.03;80.58;92717.13;5070891;28;20328;-74
2023/12/25 06:44:39;;;;;;;32.37;20.87;;;;;;;6.81;81.13;92721.69;5068944;28;20189;-74
2023/12/25 06:47:06;;;;;;;20.40;16.63;;;;;;;6.78;80.92;92707.41;5072626;28;20224;-74
2023/12/25 06:49:31;;;;;;;20.40;17.10;;;;;;;6.85;81.35;92696.81;5081479;28;20238;-73
2023/12/25 06:51:56;;;;;;;15.90;14.40;;;;;;;6.84;80.47;92682.25;5058103;28;20229;-74
2023/12/25 06:54:22;;;;;;;18.57;14.90;;;;;;;7.06;79.58;92699.22;5066253;28;20220;-74
2023/12/25 06:56:48;;;;;;;12.27;11.10;;;;;;;7.37;78.31;92713.88;5064156;28;20217;-74
2023/12/25 06:59:14;;;;;;;15.10;12.13;;;;;;;7.25;79.45;92722.91;5066066;28;20272;-75
2023/12/25 07:01:39;;;;;;;13.83;12.53;;;;;;;7.95;82.68;92721.22;5069737;28;20233;-74
2023/12/25 07:04:05;;;;;;;15.30;13.83;;;;;;;7.91;77.26;92748.78;5070221;28;20178;-73
2023/12/25 07:06:31;;;;;;;15.10;13.70;;;;;;;7.61;77.57;92769.50;5068220;28;20213;-73
2023/12/25 07:08:56;;;;;;;13.60;12.50;;;;;;;7.72;76.23;92765.88;5067593;28;20197;-74
2023/12/25 07:11:21;;;;;;;15.83;14.17;;;;;;;8.02;75.48;92772.94;5064660;28;20197;-74
2023/12/25 07:13:47;;;;;;;13.07;11.77;;;;;;;8.14;75.12;92750.06;5059643;28;20200;-73
2023/12/25 07:16:21;;;;;;;14.43;13.20;;;;;;;8.09;75.79;92750.84;5070231;28;20186;-73
2023/12/25 07:18:47;;;;;;;15.03;13.57;;;;;;;7.83;76.47;92727.69;5049956;28;20222;-73
2023/12/25 07:21:12;;;;;;;15.10;13.57;;;;;;;8.22;75.73;92754.00;5057751;28;20252;-73
2023/12/25 07:23:37;;;;;;;14.27;13.07;;;;;;;8.12;75.99;92759.97;5055411;28;20237;-74
2023/12/25 07:26:03;;;;;;;14.27;12.73;;;;;;;8.09;76.65;92760.50;5047564;28;20170;-73
2023/12/25 07:28:28;;;;;;;14.97;13.67;;;;;;;7.71;77.98;92748.75;5053799;28;20242;-73
2023/12/25 07:30:53;;;;;;;14.30;12.83;;;;;;;7.94;77.70;92773.47;5050118;28;20216;-73
2023/12/25 07:33:19;;;;;;;13.83;12.70;;;;;;;7.94;77.86;92778.66;5048996;28;20233;-74
2023/12/25 07:35:44;;;;;;;15.13;13.37;;;;;;;8.12;77.54;92765.16;5049566;28;20257;-73
2023/12/25 07:38:10;;;;;;;13.57;12.23;;;;;;;8.00;78.52;92760.22;5047716;28;20222;-73
2023/12/25 07:40:35;;;;;;;14.73;13.20;;;;;;;8.32;76.87;92765.22;5049227;28;20198;-73
2023/12/25 07:43:01;;;;;;;14.73;13.23;;;;;;;8.58;75.41;92756.34;5041348;28;20237;-74
2023/12/25 07:45:26;;;;;;;14.50;13.30;;;;;;;8.74;74.99;92759.69;5048774;28;20225;-74
2023/12/25 07:47:51;;;;;;;15.83;14.27;;;;;;;8.81;74.59;92768.03;5059428;28;20254;-73
2023/12/25 07:50:17;;;;;;;14.77;13.13;;;;;;;9.09;72.78;92786.44;5067095;28;20197;-73
2023/12/25 07:52:42;;;;;;;14.87;13.40;;;;;;;8.92;73.59;92798.22;5054004;28;20226;-74
2023/12/25 07:55:08;;;;;;;13.97;12.50;;;;;;;8.70;75.21;92800.31;5046508;28;20947;-74
2023/12/25 07:57:34;;;;;;;14.87;12.23;;;;;;;8.72;76.27;92808.63;5046731;28;20301;-73
2023/12/25 07:59:59;;;;;;;15.30;13.73;;;;;;;8.82;74.60;92803.41;5049705;28;20190;-73
2023/12/25 08:02:24;;;;;;;12.53;11.53;;;;;;;9.16;73.49;92804.38;5051610;28;20228;-73
2023/12/25 08:04:50;;;;;;;12.20;11.20;;;;;;;9.33;72.53;92797.03;5058393;28;20188;-73
2023/12/25 08:07:15;;;;;;;35.27;23.17;;;;;;;9.42;71.08;92780.59;5066156;28;20340;-73
2023/12/25 08:09:40;;;;;;;16.83;14.13;;;;;;;9.52;71.14;92790.19;5067177;28;20194;-72
2023/12/25 08:12:06;;;;;;;14.17;12.63;;;;;;;9.36;71.16;92775.66;5053964;28;20298;-73
2023/12/25 08:14:31;;;;;;;13.57;12.37;;;;;;;9.44;71.80;92788.94;5069054;28;20205;-73
2023/12/25 08:16:56;;;;;;;11.53;10.53;;;;;;;9.37;71.70;92788.44;5063406;28;20236;-73
2023/12/25 08:19:22;;;;;;;11.67;10.57;;;;;;;9.70;69.52;92802.63;5059855;28;20198;-73
2023/12/25 08:21:47;;;;;;;18.43;16.73;;;;;;;10.01;68.54;92804.03;5060922;28;20230;-74
2023/12/25 08:24:12;;;;;;;12.50;11.53;;;;;;;10.04;67.98;92802.72;5039553;28;20195;-74
2023/12/25 08:26:38;;;;;;;14.50;13.47;;;;;;;10.21;67.20;92803.16;5043000;28;20228;-73
2023/12/25 08:29:03;;;;;;;13.57;12.57;;;;;;;10.28;66.28;92799.19;5069019;28;20196;-73
2023/12/25 08:31:28;;;;;;;12.70;11.63;;;;;;;10.01;69.33;92798.03;5040932;28;20186;-72
2023/12/25 08:33:54;;;;;;;11.67;10.77;;;;;;;10.06;69.16;92790.16;5037388;28;20201;-75
2023/12/25 08:36:19;;;;;;;13.23;12.23;;;;;;;10.06;68.75;92780.53;5049056;28;20928;-75
2023/12/25 08:38:44;;;;;;;13.30;11.17;;;;;;;10.27;68.21;92783.81;5068894;28;20186;-74
2023/12/25 08:41:09;;;;;;;19.90;15.50;;;;;;;10.66;65.22;92782.72;5069405;28;20189;-74
2023/12/25 08:43:35;;;;;;;14.43;13.33;;;;;;;10.77;65.33;92797.25;5068026;28;20292;-74
2023/12/25 08:46:00;;;;;;;14.07;12.77;;;;;;;10.62;65.46;92780.91;5067919;28;20194;-74
2023/12/25 08:48:25;;;;;;;13.23;11.93;;;;;;;10.65;65.35;92803.88;5072783;28;20766;-73
2023/12/25 08:50:51;;;;;;;13.37;12.07;;;;;;;10.44;65.43;92813.72;5070184;28;20194;-74
2023/12/25 08:53:16;;;;;;;13.50;11.43;;;;;;;10.57;65.38;92807.06;5068065;28;20232;-74
2023/12/25 08:55:41;;;;;;;14.20;11.83;;;;;;;10.16;67.46;92795.38;5075697;28;20197;-75
2023/12/25 08:58:07;;;;;;;11.13;10.10;;;;;;;10.44;66.86;92789.44;5068211;28;20275;-75
2023/12/25 09:00:32;;;;;;;14.93;13.57;;;;;;;10.81;65.11;92773.97;5061197;28;20211;-75
2023/12/25 09:02:58;;;;;;;12.70;11.17;;;;;;;10.95;65.22;92793.97;5067295;28;20221;-74
2023/12/25 09:05:23;;;;;;;13.03;11.60;;;;;;;11.04;63.64;92788.91;5068080;28;20197;-74
2023/12/25 09:07:48;;;;;;;16.93;15.13;;;;;;;11.15;63.04;92778.06;5067324;28;20236;-75
2023/12/25 09:10:14;;;;;;;14.30;13.00;;;;;;;11.24;62.69;92778.22;5066022;28;20195;-74
2023/12/25 09:12:39;;;;;;;15.57;12.47;;;;;;;11.15;64.67;92766.84;5064402;28;20262;-75
2023/12/25 09:15:05;;;;;;;12.53;11.23;;;;;;;11.25;61.99;92751.81;5059749;28;20193;-77
2023/12/25 09:17:31;;;;;;;12.47;11.40;;;;;;;11.54;59.36;92770.06;5058574;28;20225;-76
2023/12/25 09:19:56;;;;;;;15.07;12.63;;;;;;;11.58;59.00;92765.06;5050218;28;20231;-78
2023/12/25 09:22:24;;;;;;;13.13;11.43;;;;;;;11.55;59.13;92768.22;5064433;28;20347;-75
2023/12/25 09:24:51;;;;;;;12.63;11.60;;;;;;;11.49;58.03;92769.34;5068582;28;20221;-82
2023/12/25 09:27:16;;;;;;;12.23;11.13;;;;;;;11.33;58.26;92764.28;5057073;28;20242;-77
2023/12/25 09:29:42;;;;;;;12.43;11.17;;;;;;;11.30;57.41;92746.53;5061716;28;20214;-77
2023/12/25 09:32:07;;;;;;;11.37;10.40;;;;;;;11.49;57.69;92757.03;5068197;28;20217;-77
2023/12/25 09:34:32;;;;;;;11.60;10.60;;;;;;;11.44;58.60;92727.56;5062984;28;20186;-78
2023/12/25 09:36:58;;;;;;;13.53;12.40;;;;;;;11.68;57.02;92739.56;5063963;28;20291;-78
2023/12/25 09:39:24;;;;;;;11.93;10.93;;;;;;;11.86;56.79;92762.34;5069813;28;20195;-78
2023/12/25 09:41:49;;;;;;;12.13;11.13;;;;;;;11.87;57.18;92758.69;5060421;28;20234;-73
2023/12/25 09:44:15;;;;;;;12.03;10.93;;;;;;;11.83;57.46;92767.38;5071545;28;20196;-74
2023/12/25 09:46:40;;;;;;;12.67;10.93;;;;;;;11.82;56.87;92776.28;5067363;28;20225;-76
2023/12/25 09:49:06;;;;;;;15.17;13.77;;;;;;;11.90;56.03;92778.25;5049452;28;20195;-74
2023/12/25 09:51:33;;;;;;;12.60;11.47;;;;;;;11.85;56.90;92773.88;5045826;28;20179;-75
2023/12/25 09:53:58;;;;;;;12.17;10.90;;;;;;;11.82;57.54;92760.56;5051408;28;20200;-74
2023/12/25 09:56:26;;;;;;;11.23;10.23;;;;;;;11.83;57.83;92752.44;5049164;28;20201;-76
2023/12/25 09:58:53;;;;;;;13.23;11.90;;;;;;;11.91;57.73;92764.09;5042634;28;20180;-76
2023/12/25 10:01:20;;;;;;;11.87;10.87;;;;;;;11.77;58.87;92752.78;5051834;28;20293;-78
2023/12/25 10:03:46;;;;;;;11.77;10.63;;;;;;;11.95;57.97;92744.19;5051906;28;20230;-77
2023/12/25 10:06:12;;;;;;;10.67;9.87;;;;;;;12.20;56.36;92741.97;5051425;28;20258;-77
2023/12/25 10:08:38;;;;;;;12.53;11.50;;;;;;;12.12;56.49;92734.78;5051072;28;20225;-75
2023/12/25 10:11:06;;;;;;;12.27;10.77;;;;;;;12.27;56.69;92752.09;5046204;28;20186;-74
2023/12/25 10:13:31;;;;;;;15.43;13.90;;;;;;;12.34;56.66;92755.13;5041963;28;20234;-74
2023/12/25 10:15:57;;;;;;;15.67;14.30;;;;;;;12.47;54.82;92757.78;5051365;28;20214;-74
2023/12/25 10:18:22;;;;;;;15.23;13.67;;;;;;;12.51;55.17;92755.41;5051498;28;20240;-74
2023/12/25 10:21:04;;;;;;;21.07;16.43;;;;;;;12.50;55.85;92753.81;5051893;28;20231;-74
2023/12/25 10:23:33;;;;;;;19.73;15.50;;;;;;;12.53;56.51;92750.63;5051287;28;20234;-73
2023/12/25 10:26:00;;;;;;;17.53;15.73;;;;;;;12.48;56.45;92738.38;5049063;28;20193;-75
2023/12/25 10:28:26;;;;;;;17.90;16.17;;;;;;;12.62;56.27;92754.16;5037448;28;20236;-74
2023/12/25 10:30:58;;;;;;;15.23;13.73;;;;;;;12.65;56.17;92750.97;5050487;28;20283;-74
2023/12/25 10:33:24;;;;;;;25.20;21.57;;;;;;;12.73;56.03;92742.47;5047708;28;20292;-74
2023/12/25 10:36:01;;;;;;;17.80;16.03;;;;;;;12.93;55.20;92742.09;5048082;28;20424;-77
2023/12/25 10:38:26;;;;;;;13.50;12.10;;;;;;;12.81;55.35;92732.09;5049330;28;20331;-78
2023/12/25 10:40:51;;;;;;;15.47;13.80;;;;;;;12.80;55.78;92735.00;5043260;28;20203;-77
2023/12/25 10:43:20;;;;;;;13.83;11.97;;;;;;;12.59;56.61;92705.75;5044585;28;20219;-79
2023/12/25 10:45:46;;;;;;;14.80;11.47;;;;;;;12.63;57.07;92725.06;5046651;28;20186;-79
2023/12/25 10:48:12;;;;;;;13.40;12.20;;;;;;;12.67;56.84;92715.56;5061802;28;20233;-81
2023/12/25 10:50:39;;;;;;;12.67;11.47;;;;;;;12.90;55.10;92716.50;5070091;28;20215;-81
2023/12/25 10:53:05;;;;;;;13.23;12.03;;;;;;;13.01;54.18;92707.41;5072984;28;20221;-85
2023/12/25 10:55:41;;;;;;;13.23;11.27;;;;;;;13.22;52.23;92713.81;5061994;28;20178;-82
2023/12/25 10:58:14;;;;;;;15.57;10.73;;;;;;;13.34;52.39;92716.72;5076173;28;20235;-78
2023/12/25 11:00:56;;;;;;;12.83;11.57;;;;;;;13.34;51.95;92719.34;5066697;28;20208;-77
2023/12/25 11:03:21;;;;;;;11.30;10.40;;;;;;;13.28;51.90;92711.84;5052348;28;20243;-77
2023/12/25 11:05:48;;;;;;;14.17;13.03;;;;;;;13.46;51.18;92732.75;5040441;28;20193;-83
2023/12/25 11:08:15;;;;;;;13.90;11.40;;;;;;;13.43;51.47;92733.31;5049192;28;20225;-77
2023/12/25 11:10:41;;;;;;;11.83;10.70;;;;;;;13.12;53.07;92732.34;5050036;28;20195;-77
2023/12/25 11:13:07;;;;;;;13.77;12.33;;;;;;;13.29;51.83;92716.03;5055530;28;20217;-84
2023/12/25 11:15:33;;;;;;;11.50;10.47;;;;;;;13.23;54.66;92735.56;5048070;28;20225;-76
2023/12/25 11:17:59;;;;;;;13.57;12.27;;;;;;;13.45;52.55;92730.44;5064402;28;20225;-74